Time,TemperatureF,DewpointF,PressureIn,WindDirection,WindDirectionDegrees,WindSpeedMPH,WindSpeedGustMPH,Humidity,HourlyPrecipIn,Conditions,Clouds,dailyrainin,SoftwareType,DateUTC
2013-09-21 00:00:00,55.6,53.9,29.73,WSW,248,0.0,1.0,94,0.00,,---,0.00,VWS V14.00,2013-09-21 05:00:00,
2013-09-21 00:04:00,55.5,53.8,29.73,WSW,248,0.0,0.0,94,0.00,,---,0.00,VWS V14.00,2013-09-21 05:04:00,
2013-09-21 00:05:00,55.5,53.8,29.73,WSW,248,0.0,1.0,94,0.00,,---,0.00,VWS V14.00,2013-09-21 05:05:00,
2013-09-21 00:09:00,55.5,53.8,29.73,WSW,248,0.0,0.0,94,0.00,,---,0.00,VWS V14.00,2013-09-21 05:09:00,
2013-09-21 00:10:00,55.5,53.8,29.73,WSW,248,0.0,0.0,94,0.00,,---,0.00,VWS V14.00,2013-09-21 05:10:00,
2013-09-21 00:14:00,55.5,53.8,29.73,WSW,248,0.0,0.0,94,0.00,,---,0.00,VWS V14.00,2013-09-21 05:14:00,
2013-09-21 00:15:00,55.5,53.8,29.73,WSW,248,0.0,0.0,94,0.00,,---,0.00,VWS V14.00,2013-09-21 05:15:00,
2013-09-21 00:19:00,55.5,53.8,29.73,WSW,248,0.0,0.0,94,0.00,,---,0.00,VWS V14.00,2013-09-21 05:19:00,
2013-09-21 00:20:00,55.5,53.8,29.73,WSW,248,0.0,0.0,94,0.00,,---,0.00,VWS V14.00,2013-09-21 05:20:00,
2013-09-21 00:24:00,55.4,53.7,29.73,WSW,248,0.0,0.0,94,0.00,,---,0.00,VWS V14.00,2013-09-21 05:24:00,
2013-09-21 00:25:00,55.4,53.7,29.73,WSW,248,0.0,0.0,94,0.00,,---,0.00,VWS V14.00,2013-09-21 05:25:00,
2013-09-21 00:29:00,55.3,53.6,29.73,WSW,248,0.0,0.0,94,0.00,,---,0.00,VWS V14.00,2013-09-21 05:29:00,
2013-09-21 00:30:00,55.3,53.6,29.73,WSW,248,0.0,0.0,94,0.00,,---,0.00,VWS V14.00,2013-09-21 05:30:00,
2013-09-21 00:34:00,55.3,53.6,29.73,WSW,248,0.0,0.0,94,0.00,,---,0.00,VWS V14.00,2013-09-21 05:34:00,
2013-09-21 00:35:00,55.3,53.6,29.73,WSW,248,0.0,0.0,94,0.00,,---,0.00,VWS V14.00,2013-09-21 05:35:00,
2013-09-21 00:39:00,55.1,53.4,29.74,WSW,248,0.0,0.0,94,0.00,,---,0.00,VWS V14.00,2013-09-21 05:39:00,
2013-09-21 00:40:00,55.1,53.4,29.74,WSW,248,0.0,0.0,94,0.00,,---,0.00,VWS V14.00,2013-09-21 05:40:00,
2013-09-21 00:44:00,55.0,53.3,29.74,WSW,248,0.0,1.0,94,0.00,,---,0.00,VWS V14.00,2013-09-21 05:44:00,
2013-09-21 00:45:00,55.0,53.3,29.74,WSW,248,0.0,1.0,94,0.00,,---,0.00,VWS V14.00,2013-09-21 05:45:00,
2013-09-21 00:49:00,54.8,53.1,29.74,WSW,248,0.0,0.0,94,0.00,,---,0.00,VWS V14.00,2013-09-21 05:49:00,
2013-09-21 00:50:00,54.8,53.1,29.74,WSW,248,0.0,0.0,94,0.00,,---,0.00,VWS V14.00,2013-09-21 05:50:00,
2013-09-21 00:54:00,54.7,53.0,29.74,WSW,248,0.0,0.0,94,0.00,,---,0.00,VWS V14.00,2013-09-21 05:54:00,
2013-09-21 00:55:00,54.7,53.0,29.74,WSW,248,0.0,0.0,94,0.00,,---,0.00,VWS V14.00,2013-09-21 05:55:00,
2013-09-21 00:59:00,54.5,52.8,29.74,WSW,248,0.0,0.0,94,0.00,,---,0.00,VWS V14.00,2013-09-21 05:59:00,
2013-09-21 01:00:00,54.5,52.8,29.74,WSW,248,0.0,0.0,94,0.00,,---,0.00,VWS V14.00,2013-09-21 06:00:00,
2013-09-21 01:04:00,54.4,52.7,29.74,WSW,248,0.0,0.0,94,0.00,,---,0.00,VWS V14.00,2013-09-21 06:04:00,
2013-09-21 01:05:00,54.4,52.7,29.74,WSW,248,0.0,0.0,94,0.00,,---,0.00,VWS V14.00,2013-09-21 06:05:00,
2013-09-21 01:09:00,54.1,52.4,29.74,WSW,248,0.0,0.0,94,0.00,,---,0.00,VWS V14.00,2013-09-21 06:09:00,
2013-09-21 01:10:00,54.1,52.4,29.74,WSW,248,0.0,0.0,94,0.00,,---,0.00,VWS V14.00,2013-09-21 06:10:00,
2013-09-21 01:14:00,53.9,52.2,29.74,WSW,248,0.0,0.0,94,0.00,,---,0.00,VWS V14.00,2013-09-21 06:14:00,
2013-09-21 01:15:00,53.9,52.2,29.74,WSW,248,0.0,0.0,94,0.00,,---,0.00,VWS V14.00,2013-09-21 06:15:00,
2013-09-21 01:19:00,53.8,52.1,29.74,WSW,248,0.0,0.0,94,0.00,,---,0.00,VWS V14.00,2013-09-21 06:19:00,
2013-09-21 01:20:00,53.8,52.1,29.74,WSW,248,0.0,0.0,94,0.00,,---,0.00,VWS V14.00,2013-09-21 06:20:00,
2013-09-21 01:24:00,53.7,52.0,29.74,WSW,248,0.0,0.0,94,0.00,,---,0.00,VWS V14.00,2013-09-21 06:24:00,
2013-09-21 01:25:00,53.7,52.0,29.74,WSW,248,0.0,0.0,94,0.00,,---,0.00,VWS V14.00,2013-09-21 06:25:00,
2013-09-21 01:29:00,53.6,51.9,29.74,WSW,248,0.0,0.0,94,0.00,,---,0.00,VWS V14.00,2013-09-21 06:29:00,
2013-09-21 01:30:00,53.6,51.9,29.74,WSW,248,0.0,0.0,94,0.00,,---,0.00,VWS V14.00,2013-09-21 06:30:00,
2013-09-21 01:34:00,53.4,51.7,29.74,WSW,248,0.0,0.0,94,0.00,,---,0.00,VWS V14.00,2013-09-21 06:34:00,
2013-09-21 01:35:00,53.4,51.7,29.74,WSW,248,0.0,0.0,94,0.00,,---,0.00,VWS V14.00,2013-09-21 06:35:00,
2013-09-21 01:39:00,53.3,51.6,29.75,WSW,248,0.0,0.0,94,0.00,,---,0.00,VWS V14.00,2013-09-21 06:39:00,
2013-09-21 01:40:00,53.3,51.6,29.74,WSW,248,0.0,0.0,94,0.00,,---,0.00,VWS V14.00,2013-09-21 06:40:00,
2013-09-21 01:44:00,53.3,51.9,29.74,WSW,248,0.0,0.0,95,0.00,,---,0.00,VWS V14.00,2013-09-21 06:44:00,
2013-09-21 01:45:00,53.3,51.9,29.74,WSW,248,0.0,0.0,95,0.00,,---,0.00,VWS V14.00,2013-09-21 06:45:00,
2013-09-21 01:49:00,53.6,52.2,29.74,WSW,248,0.0,1.0,95,0.00,,---,0.00,VWS V14.00,2013-09-21 06:49:00,
2013-09-21 01:50:00,53.6,52.2,29.74,WSW,248,0.0,1.0,95,0.00,,---,0.00,VWS V14.00,2013-09-21 06:50:00,
2013-09-21 01:54:00,53.8,52.4,29.74,WSW,248,0.0,0.0,95,0.00,,---,0.00,VWS V14.00,2013-09-21 06:54:00,
2013-09-21 01:55:00,53.8,52.4,29.74,WSW,248,0.0,0.0,95,0.00,,---,0.00,VWS V14.00,2013-09-21 06:55:00,
2013-09-21 01:59:00,53.9,52.5,29.74,WSW,248,0.0,0.0,95,0.00,,---,0.00,VWS V14.00,2013-09-21 06:59:00,
2013-09-21 02:00:00,53.9,52.5,29.74,WSW,248,0.0,0.0,95,0.00,,---,0.00,VWS V14.00,2013-09-21 07:00:00,
2013-09-21 02:04:00,54.0,52.6,29.74,WSW,248,0.0,1.0,95,0.00,,---,0.00,VWS V14.00,2013-09-21 07:04:00,
2013-09-21 02:05:00,54.0,52.6,29.74,WSW,248,0.0,1.0,95,0.00,,---,0.00,VWS V14.00,2013-09-21 07:05:00,
2013-09-21 02:09:00,54.0,52.6,29.74,WSW,248,0.0,1.0,95,0.00,,---,0.00,VWS V14.00,2013-09-21 07:09:00,
2013-09-21 02:10:00,54.0,52.6,29.74,WSW,248,0.0,1.0,95,0.00,,---,0.00,VWS V14.00,2013-09-21 07:10:00,
2013-09-21 02:14:00,54.0,52.6,29.74,WSW,248,0.0,0.0,95,0.00,,---,0.00,VWS V14.00,2013-09-21 07:14:00,
2013-09-21 02:15:00,54.0,52.6,29.74,WSW,248,0.0,0.0,95,0.00,,---,0.00,VWS V14.00,2013-09-21 07:15:00,
2013-09-21 02:19:00,54.0,52.6,29.74,WSW,248,0.0,0.0,95,0.00,,---,0.00,VWS V14.00,2013-09-21 07:19:00,
2013-09-21 02:20:00,54.0,52.6,29.74,WSW,248,0.0,0.0,95,0.00,,---,0.00,VWS V14.00,2013-09-21 07:20:00,
2013-09-21 02:24:00,54.0,52.6,29.74,WSW,248,0.0,0.0,95,0.00,,---,0.00,VWS V14.00,2013-09-21 07:24:00,
2013-09-21 02:25:00,54.0,52.6,29.74,WSW,248,0.0,0.0,95,0.00,,---,0.00,VWS V14.00,2013-09-21 07:25:00,
2013-09-21 02:29:00,54.0,52.6,29.73,WSW,248,0.0,1.0,95,0.00,,---,0.00,VWS V14.00,2013-09-21 07:29:00,
2013-09-21 02:30:00,54.0,52.6,29.73,WSW,248,0.0,1.0,95,0.00,,---,0.00,VWS V14.00,2013-09-21 07:30:00,
2013-09-21 02:34:00,54.0,52.3,29.74,WSW,248,0.0,0.0,94,0.00,,---,0.00,VWS V14.00,2013-09-21 07:34:00,
2013-09-21 02:35:00,54.0,52.3,29.74,WSW,248,0.0,0.0,94,0.00,,---,0.00,VWS V14.00,2013-09-21 07:35:00,
2013-09-21 02:39:00,54.0,52.3,29.74,WSW,248,0.0,0.0,94,0.00,,---,0.00,VWS V14.00,2013-09-21 07:39:00,
2013-09-21 02:40:00,54.0,52.3,29.74,WSW,248,0.0,0.0,94,0.00,,---,0.00,VWS V14.00,2013-09-21 07:40:00,
2013-09-21 02:44:00,54.0,52.3,29.74,WSW,248,0.0,1.0,94,0.00,,---,0.00,VWS V14.00,2013-09-21 07:44:00,
2013-09-21 02:45:00,54.0,52.3,29.74,WSW,248,0.0,1.0,94,0.00,,---,0.00,VWS V14.00,2013-09-21 07:45:00,
2013-09-21 02:49:00,54.0,52.3,29.74,WSW,248,0.0,1.0,94,0.00,,---,0.00,VWS V14.00,2013-09-21 07:49:00,
2013-09-21 02:50:00,54.0,52.3,29.74,WSW,248,0.0,1.0,94,0.00,,---,0.00,VWS V14.00,2013-09-21 07:50:00,
2013-09-21 02:54:00,53.9,52.2,29.73,West,260,0.0,1.0,94,0.00,,---,0.00,VWS V14.00,2013-09-21 07:54:00,
2013-09-21 02:55:00,53.9,52.2,29.73,West,260,0.0,1.0,94,0.00,,---,0.00,VWS V14.00,2013-09-21 07:55:00,
2013-09-21 02:59:00,53.9,52.2,29.73,West,260,0.0,1.0,94,0.00,,---,0.00,VWS V14.00,2013-09-21 07:59:00,
2013-09-21 03:00:00,53.9,52.2,29.73,West,260,0.0,1.0,94,0.00,,---,0.00,VWS V14.00,2013-09-21 08:00:00,
2013-09-21 03:04:00,53.8,52.1,29.73,West,260,0.0,2.0,94,0.00,,---,0.00,VWS V14.00,2013-09-21 08:04:00,
2013-09-21 03:05:00,53.8,52.1,29.73,West,260,0.0,2.0,94,0.00,,---,0.00,VWS V14.00,2013-09-21 08:05:00,
2013-09-21 03:09:00,53.7,52.0,29.73,West,260,0.0,0.0,94,0.00,,---,0.00,VWS V14.00,2013-09-21 08:09:00,
2013-09-21 03:10:00,53.7,52.0,29.73,West,260,0.0,0.0,94,0.00,,---,0.00,VWS V14.00,2013-09-21 08:10:00,
2013-09-21 03:14:00,53.7,52.0,29.73,West,260,0.0,1.0,94,0.00,,---,0.00,VWS V14.00,2013-09-21 08:14:00,
2013-09-21 03:15:00,53.7,52.0,29.73,West,260,0.0,1.0,94,0.00,,---,0.00,VWS V14.00,2013-09-21 08:15:00,
2013-09-21 03:19:00,53.7,52.0,29.73,West,265,0.0,2.0,94,0.00,,---,0.00,VWS V14.00,2013-09-21 08:19:00,
2013-09-21 03:20:00,53.7,52.0,29.73,West,265,0.0,2.0,94,0.00,,---,0.00,VWS V14.00,2013-09-21 08:20:00,
2013-09-21 03:24:00,53.7,52.0,29.73,NW,306,0.0,5.0,94,0.00,,---,0.00,VWS V14.00,2013-09-21 08:24:00,
2013-09-21 03:25:00,53.7,52.0,29.73,NW,306,0.0,5.0,94,0.00,,---,0.00,VWS V14.00,2013-09-21 08:25:00,
2013-09-21 03:29:00,53.7,51.7,29.73,NW,306,0.0,1.0,93,0.00,,---,0.00,VWS V14.00,2013-09-21 08:29:00,
2013-09-21 03:30:00,53.7,51.7,29.73,NW,306,0.0,1.0,93,0.00,,---,0.00,VWS V14.00,2013-09-21 08:30:00,
2013-09-21 03:34:00,53.7,51.7,29.73,NW,306,0.0,1.0,93,0.00,,---,0.00,VWS V14.00,2013-09-21 08:34:00,
2013-09-21 03:35:00,53.7,51.7,29.73,NW,306,0.0,1.0,93,0.00,,---,0.00,VWS V14.00,2013-09-21 08:35:00,
2013-09-21 03:39:00,53.6,51.6,29.74,WNW,293,2.0,3.0,93,0.00,,---,0.00,VWS V14.00,2013-09-21 08:39:00,
2013-09-21 03:40:00,53.6,51.6,29.74,WNW,293,2.0,3.0,93,0.00,,---,0.00,VWS V14.00,2013-09-21 08:40:00,
2013-09-21 03:44:00,53.6,51.6,29.74,WNW,292,0.0,3.0,93,0.00,,---,0.00,VWS V14.00,2013-09-21 08:44:00,
2013-09-21 03:45:00,53.6,51.6,29.74,WNW,292,0.0,3.0,93,0.00,,---,0.00,VWS V14.00,2013-09-21 08:45:00,
2013-09-21 03:49:00,53.5,51.5,29.74,WNW,296,0.0,4.0,93,0.00,,---,0.00,VWS V14.00,2013-09-21 08:49:00,
2013-09-21 03:50:00,53.5,51.5,29.74,WNW,296,0.0,4.0,93,0.00,,---,0.00,VWS V14.00,2013-09-21 08:50:00,
2013-09-21 03:54:00,53.4,51.4,29.74,NW,319,0.0,2.0,93,0.00,,---,0.00,VWS V14.00,2013-09-21 08:54:00,
2013-09-21 03:55:00,53.4,51.4,29.74,NW,319,0.0,2.0,93,0.00,,---,0.00,VWS V14.00,2013-09-21 08:55:00,
2013-09-21 03:59:00,53.3,51.0,29.74,NW,306,0.0,4.0,92,0.00,,---,0.00,VWS V14.00,2013-09-21 08:59:00,
2013-09-21 04:00:00,53.3,51.0,29.74,NW,306,0.0,4.0,92,0.00,,---,0.00,VWS V14.00,2013-09-21 09:00:00,
2013-09-21 04:04:00,53.2,50.9,29.74,NW,306,0.0,0.0,92,0.00,,---,0.00,VWS V14.00,2013-09-21 09:04:00,
2013-09-21 04:05:00,53.2,50.9,29.74,NW,306,0.0,0.0,92,0.00,,---,0.00,VWS V14.00,2013-09-21 09:05:00,
2013-09-21 04:09:00,53.1,50.8,29.74,NW,306,0.0,1.0,92,0.00,,---,0.00,VWS V14.00,2013-09-21 09:09:00,
2013-09-21 04:10:00,53.1,50.8,29.74,NW,306,0.0,1.0,92,0.00,,---,0.00,VWS V14.00,2013-09-21 09:10:00,
2013-09-21 04:14:00,52.9,50.6,29.75,NW,306,0.0,0.0,92,0.00,,---,0.00,VWS V14.00,2013-09-21 09:14:00,
2013-09-21 04:15:00,52.9,50.6,29.75,NW,306,0.0,0.0,92,0.00,,---,0.00,VWS V14.00,2013-09-21 09:15:00,
2013-09-21 04:19:00,52.6,50.3,29.75,NW,306,0.0,0.0,92,0.00,,---,0.00,VWS V14.00,2013-09-21 09:19:00,
2013-09-21 04:20:00,52.6,50.3,29.75,NW,306,0.0,0.0,92,0.00,,---,0.00,VWS V14.00,2013-09-21 09:20:00,
2013-09-21 04:24:00,52.3,50.3,29.75,NW,306,0.0,0.0,93,0.00,,---,0.00,VWS V14.00,2013-09-21 09:24:00,
2013-09-21 04:25:00,52.3,50.3,29.75,NW,306,0.0,0.0,93,0.00,,---,0.00,VWS V14.00,2013-09-21 09:25:00,
2013-09-21 04:29:00,52.2,50.2,29.75,NW,306,0.0,0.0,93,0.00,,---,0.00,VWS V14.00,2013-09-21 09:29:00,
2013-09-21 04:30:00,52.2,50.2,29.75,NW,306,0.0,0.0,93,0.00,,---,0.00,VWS V14.00,2013-09-21 09:30:00,
2013-09-21 04:34:00,52.0,50.0,29.75,NW,306,0.0,0.0,93,0.00,,---,0.00,VWS V14.00,2013-09-21 09:34:00,
2013-09-21 04:35:00,52.0,50.0,29.75,NW,306,0.0,0.0,93,0.00,,---,0.00,VWS V14.00,2013-09-21 09:35:00,
2013-09-21 04:39:00,51.9,49.9,29.75,NW,306,0.0,0.0,93,0.00,,---,0.00,VWS V14.00,2013-09-21 09:39:00,
2013-09-21 04:40:00,51.9,49.9,29.75,NW,306,0.0,0.0,93,0.00,,---,0.00,VWS V14.00,2013-09-21 09:40:00,
2013-09-21 04:44:00,51.9,49.9,29.75,NW,306,0.0,0.0,93,0.00,,---,0.00,VWS V14.00,2013-09-21 09:44:00,
2013-09-21 04:45:00,51.9,49.9,29.75,NW,306,0.0,0.0,93,0.00,,---,0.00,VWS V14.00,2013-09-21 09:45:00,
2013-09-21 04:49:00,51.8,50.1,29.75,NW,306,0.0,1.0,94,0.00,,---,0.00,VWS V14.00,2013-09-21 09:49:00,
2013-09-21 04:50:00,51.8,50.1,29.75,NW,306,0.0,1.0,94,0.00,,---,0.00,VWS V14.00,2013-09-21 09:50:00,
2013-09-21 04:54:00,51.8,50.1,29.75,NW,306,0.0,1.0,94,0.00,,---,0.00,VWS V14.00,2013-09-21 09:54:00,
2013-09-21 04:55:00,51.8,50.1,29.75,NW,306,0.0,1.0,94,0.00,,---,0.00,VWS V14.00,2013-09-21 09:55:00,
2013-09-21 04:59:00,51.7,50.0,29.75,NW,306,0.0,2.0,94,0.00,,---,0.00,VWS V14.00,2013-09-21 09:59:00,
2013-09-21 05:00:00,51.7,50.0,29.75,NW,306,0.0,2.0,94,0.00,,---,0.00,VWS V14.00,2013-09-21 10:00:00,
2013-09-21 05:04:00,51.6,49.9,29.76,NW,306,0.0,0.0,94,0.00,,---,0.00,VWS V14.00,2013-09-21 10:04:00,
2013-09-21 05:05:00,51.6,49.9,29.76,NW,306,0.0,0.0,94,0.00,,---,0.00,VWS V14.00,2013-09-21 10:05:00,
2013-09-21 05:09:00,51.6,49.9,29.76,NW,306,0.0,1.0,94,0.00,,---,0.00,VWS V14.00,2013-09-21 10:09:00,
2013-09-21 05:10:00,51.6,49.9,29.76,NW,306,0.0,1.0,94,0.00,,---,0.00,VWS V14.00,2013-09-21 10:10:00,
2013-09-21 05:14:00,51.5,49.8,29.76,NW,306,0.0,0.0,94,0.00,,---,0.00,VWS V14.00,2013-09-21 10:14:00,
2013-09-21 05:15:00,51.5,49.8,29.76,NW,306,0.0,0.0,94,0.00,,---,0.00,VWS V14.00,2013-09-21 10:15:00,
2013-09-21 05:19:00,51.4,49.7,29.76,NW,306,0.0,1.0,94,0.00,,---,0.00,VWS V14.00,2013-09-21 10:19:00,
2013-09-21 05:20:00,51.4,49.7,29.76,NW,306,0.0,1.0,94,0.00,,---,0.00,VWS V14.00,2013-09-21 10:20:00,
2013-09-21 05:24:00,51.4,49.7,29.77,NW,306,0.0,3.0,94,0.00,,---,0.00,VWS V14.00,2013-09-21 10:24:00,
2013-09-21 05:25:00,51.4,49.7,29.77,NW,306,0.0,3.0,94,0.00,,---,0.00,VWS V14.00,2013-09-21 10:25:00,
2013-09-21 05:29:00,51.3,49.6,29.77,NW,306,0.0,2.0,94,0.00,,---,0.00,VWS V14.00,2013-09-21 10:29:00,
2013-09-21 05:30:00,51.3,49.6,29.77,NW,306,0.0,2.0,94,0.00,,---,0.00,VWS V14.00,2013-09-21 10:30:00,
2013-09-21 05:34:00,51.2,49.5,29.77,NW,306,0.0,0.0,94,0.00,,---,0.00,VWS V14.00,2013-09-21 10:34:00,
2013-09-21 05:35:00,51.2,49.5,29.77,NW,306,0.0,0.0,94,0.00,,---,0.00,VWS V14.00,2013-09-21 10:35:00,
2013-09-21 05:39:00,51.1,49.4,29.77,NW,306,0.0,1.0,94,0.00,,---,0.00,VWS V14.00,2013-09-21 10:39:00,
2013-09-21 05:40:00,51.1,49.4,29.77,NW,306,0.0,1.0,94,0.00,,---,0.00,VWS V14.00,2013-09-21 10:40:00,
2013-09-21 05:44:00,51.0,49.3,29.77,NW,306,0.0,3.0,94,0.00,,---,0.00,VWS V14.00,2013-09-21 10:44:00,
2013-09-21 05:45:00,51.0,49.3,29.77,NW,306,0.0,3.0,94,0.00,,---,0.00,VWS V14.00,2013-09-21 10:45:00,
2013-09-21 05:49:00,51.0,49.3,29.77,NW,306,0.0,1.0,94,0.00,,---,0.00,VWS V14.00,2013-09-21 10:49:00,
2013-09-21 05:50:00,51.0,49.3,29.77,NW,306,0.0,1.0,94,0.00,,---,0.00,VWS V14.00,2013-09-21 10:50:00,
2013-09-21 05:54:00,50.8,49.1,29.77,NW,306,0.0,2.0,94,0.00,,---,0.00,VWS V14.00,2013-09-21 10:54:00,
2013-09-21 05:55:00,50.8,49.1,29.77,NW,306,0.0,2.0,94,0.00,,---,0.00,VWS V14.00,2013-09-21 10:55:00,
2013-09-21 05:59:00,50.7,49.3,29.77,NW,306,0.0,0.0,95,0.00,,---,0.00,VWS V14.00,2013-09-21 10:59:00,
2013-09-21 06:00:00,50.7,49.3,29.77,NW,306,0.0,0.0,95,0.00,,---,0.00,VWS V14.00,2013-09-21 11:00:00,
2013-09-21 06:04:00,50.5,49.1,29.77,NW,306,0.0,0.0,95,0.00,,---,0.00,VWS V14.00,2013-09-21 11:04:00,
2013-09-21 06:05:00,50.5,49.1,29.77,NW,306,0.0,0.0,95,0.00,,---,0.00,VWS V14.00,2013-09-21 11:05:00,
2013-09-21 06:09:00,50.3,48.6,29.78,NW,306,0.0,0.0,94,0.00,,---,0.00,VWS V14.00,2013-09-21 11:09:00,
2013-09-21 06:10:00,50.3,48.6,29.78,NW,306,0.0,0.0,94,0.00,,---,0.00,VWS V14.00,2013-09-21 11:10:00,
2013-09-21 06:14:00,50.1,48.7,29.78,NW,306,0.0,0.0,95,0.01,,---,0.01,VWS V14.00,2013-09-21 11:14:00,
2013-09-21 06:15:00,50.1,48.7,29.78,NW,306,0.0,0.0,95,0.01,,---,0.01,VWS V14.00,2013-09-21 11:15:00,
2013-09-21 06:19:00,50.0,48.6,29.78,NW,306,0.0,0.0,95,0.01,,---,0.01,VWS V14.00,2013-09-21 11:19:00,
2013-09-21 06:20:00,50.0,48.6,29.78,NW,306,0.0,0.0,95,0.01,,---,0.01,VWS V14.00,2013-09-21 11:20:00,
2013-09-21 06:24:00,49.9,48.5,29.78,NW,306,0.0,0.0,95,0.01,,---,0.01,VWS V14.00,2013-09-21 11:24:00,
2013-09-21 06:25:00,49.9,48.5,29.78,NW,306,0.0,0.0,95,0.01,,---,0.01,VWS V14.00,2013-09-21 11:25:00,
2013-09-21 06:29:00,49.8,48.4,29.78,NW,306,0.0,0.0,95,0.01,,---,0.01,VWS V14.00,2013-09-21 11:29:00,
2013-09-21 06:30:00,49.8,48.4,29.78,NW,306,0.0,0.0,95,0.01,,---,0.01,VWS V14.00,2013-09-21 11:30:00,
2013-09-21 06:34:00,49.6,48.2,29.78,NW,306,0.0,0.0,95,0.01,,---,0.01,VWS V14.00,2013-09-21 11:34:00,
2013-09-21 06:35:00,49.6,48.2,29.78,NW,306,0.0,0.0,95,0.01,,---,0.01,VWS V14.00,2013-09-21 11:35:00,
2013-09-21 06:39:00,49.5,48.1,29.78,NW,306,0.0,0.0,95,0.01,,---,0.01,VWS V14.00,2013-09-21 11:39:00,
2013-09-21 06:40:00,49.5,48.1,29.78,NW,306,0.0,0.0,95,0.01,,---,0.01,VWS V14.00,2013-09-21 11:40:00,
2013-09-21 06:44:00,49.5,48.1,29.78,NW,306,0.0,0.0,95,0.01,,---,0.01,VWS V14.00,2013-09-21 11:44:00,
2013-09-21 06:45:00,49.5,48.1,29.78,NW,306,0.0,0.0,95,0.01,,---,0.01,VWS V14.00,2013-09-21 11:45:00,
2013-09-21 06:49:00,49.5,48.1,29.78,NW,306,0.0,1.0,95,0.01,,---,0.01,VWS V14.00,2013-09-21 11:49:00,
2013-09-21 06:50:00,49.5,48.1,29.78,NW,306,0.0,1.0,95,0.01,,---,0.01,VWS V14.00,2013-09-21 11:50:00,
2013-09-21 06:54:00,49.6,48.2,29.79,NW,306,0.0,0.0,95,0.01,,---,0.01,VWS V14.00,2013-09-21 11:54:00,
2013-09-21 06:55:00,49.6,48.2,29.79,NW,306,0.0,0.0,95,0.01,,---,0.01,VWS V14.00,2013-09-21 11:55:00,
2013-09-21 06:59:00,49.6,48.5,29.79,NW,306,0.0,1.0,96,0.01,,---,0.01,VWS V14.00,2013-09-21 11:59:00,
2013-09-21 07:00:00,49.6,48.5,29.79,NW,306,0.0,1.0,96,0.01,,---,0.01,VWS V14.00,2013-09-21 12:00:00,
2013-09-21 07:04:00,49.7,48.6,29.79,NW,306,0.0,0.0,96,0.01,,---,0.01,VWS V14.00,2013-09-21 12:04:00,
2013-09-21 07:05:00,49.7,48.6,29.79,NW,306,0.0,0.0,96,0.01,,---,0.01,VWS V14.00,2013-09-21 12:05:00,
2013-09-21 07:09:00,49.9,48.8,29.79,NW,306,0.0,0.0,96,0.01,,---,0.01,VWS V14.00,2013-09-21 12:09:00,
2013-09-21 07:10:00,49.9,48.8,29.79,NW,306,0.0,0.0,96,0.01,,---,0.01,VWS V14.00,2013-09-21 12:10:00,
2013-09-21 07:14:00,50.3,49.2,29.79,NW,306,0.0,0.0,96,0.00,,---,0.01,VWS V14.00,2013-09-21 12:14:00,
2013-09-21 07:15:00,50.2,49.1,29.79,NW,306,0.0,0.0,96,0.01,,---,0.01,VWS V14.00,2013-09-21 12:15:00,
2013-09-21 07:19:00,50.6,49.5,29.79,NW,306,0.0,0.0,96,0.00,,---,0.01,VWS V14.00,2013-09-21 12:19:00,
2013-09-21 07:20:00,50.6,49.5,29.79,NW,306,0.0,0.0,96,0.00,,---,0.01,VWS V14.00,2013-09-21 12:20:00,
2013-09-21 07:24:00,51.0,49.9,29.79,NW,306,0.0,0.0,96,0.00,,---,0.01,VWS V14.00,2013-09-21 12:24:00,
2013-09-21 07:25:00,50.9,49.8,29.79,NW,306,0.0,1.0,96,0.00,,---,0.01,VWS V14.00,2013-09-21 12:25:00,
2013-09-21 07:29:00,51.4,50.3,29.79,NW,306,0.0,0.0,96,0.00,,---,0.01,VWS V14.00,2013-09-21 12:29:00,
2013-09-21 07:30:00,51.4,50.3,29.79,NW,306,0.0,0.0,96,0.00,,---,0.01,VWS V14.00,2013-09-21 12:30:00,
2013-09-21 07:34:00,51.6,50.5,29.79,NW,306,0.0,0.0,96,0.00,,---,0.01,VWS V14.00,2013-09-21 12:34:00,
2013-09-21 07:35:00,51.6,50.5,29.79,NW,306,0.0,1.0,96,0.00,,---,0.01,VWS V14.00,2013-09-21 12:35:00,
2013-09-21 07:39:00,51.9,50.8,29.79,NW,306,0.0,1.0,96,0.00,,---,0.01,VWS V14.00,2013-09-21 12:39:00,
2013-09-21 07:40:00,51.9,50.8,29.79,NW,306,0.0,2.0,96,0.00,,---,0.01,VWS V14.00,2013-09-21 12:40:00,
2013-09-21 07:44:00,52.2,51.1,29.79,NW,306,0.0,0.0,96,0.00,,---,0.01,VWS V14.00,2013-09-21 12:44:00,
2013-09-21 07:45:00,52.2,51.1,29.79,NW,306,0.0,1.0,96,0.00,,---,0.01,VWS V14.00,2013-09-21 12:45:00,
2013-09-21 07:49:00,52.6,51.5,29.79,NW,306,0.0,0.0,96,0.00,,---,0.01,VWS V14.00,2013-09-21 12:49:00,
2013-09-21 07:50:00,52.5,51.4,29.79,NW,306,0.0,1.0,96,0.00,,---,0.01,VWS V14.00,2013-09-21 12:50:00,
2013-09-21 07:54:00,52.7,51.3,29.79,NW,305,0.0,0.0,95,0.00,,---,0.01,VWS V14.00,2013-09-21 12:54:00,
2013-09-21 07:55:00,52.7,51.3,29.79,NW,305,0.0,4.0,95,0.00,,---,0.01,VWS V14.00,2013-09-21 12:55:00,
2013-09-21 07:59:00,53.2,51.8,29.79,NW,304,0.0,0.0,95,0.00,,---,0.01,VWS V14.00,2013-09-21 12:59:00,
2013-09-21 08:00:00,53.1,51.7,29.79,NW,305,0.0,2.0,95,0.00,,---,0.01,VWS V14.00,2013-09-21 13:00:00,
2013-09-21 08:04:00,53.4,51.7,29.79,NW,310,0.0,0.0,94,0.00,,---,0.01,VWS V14.00,2013-09-21 13:04:00,
2013-09-21 08:05:00,53.4,52.0,29.79,NW,310,0.0,3.0,95,0.00,,---,0.01,VWS V14.00,2013-09-21 13:05:00,
2013-09-21 08:10:00,53.3,51.6,29.79,NW,311,2.0,2.0,94,0.00,,---,0.01,VWS V14.00,2013-09-21 13:10:00,
2013-09-21 08:15:00,53.2,51.2,29.79,NW,307,0.0,3.0,93,0.00,,---,0.01,VWS V14.00,2013-09-21 13:15:00,
2013-09-21 08:20:00,53.3,51.3,29.80,NW,306,0.0,0.0,93,0.00,,---,0.01,VWS V14.00,2013-09-21 13:20:00,
2013-09-21 08:25:00,53.3,51.3,29.80,NW,323,0.0,2.0,93,0.00,,---,0.01,VWS V14.00,2013-09-21 13:25:00,
2013-09-21 08:30:00,53.5,51.2,29.80,NW,306,0.0,0.0,92,0.00,,---,0.01,VWS V14.00,2013-09-21 13:30:00,
2013-09-21 08:35:00,53.9,51.6,29.80,West,280,0.0,6.0,92,0.00,,---,0.01,VWS V14.00,2013-09-21 13:35:00,
2013-09-21 08:40:00,54.2,51.6,29.80,NW,304,3.0,4.0,91,0.00,,---,0.01,VWS V14.00,2013-09-21 13:40:00,
2013-09-21 08:45:00,54.4,51.5,29.80,WNW,302,0.0,5.0,90,0.00,,---,0.01,VWS V14.00,2013-09-21 13:45:00,
2013-09-21 08:50:00,54.7,51.8,29.79,West,275,0.0,2.0,90,0.00,,---,0.01,VWS V14.00,2013-09-21 13:50:00,
2013-09-21 08:55:00,55.2,52.3,29.80,NNW,333,0.0,1.0,90,0.00,,---,0.01,VWS V14.00,2013-09-21 13:55:00,
2013-09-21 09:00:00,55.4,51.6,29.80,WNW,290,0.0,3.0,87,0.00,,---,0.01,VWS V14.00,2013-09-21 14:00:00,
2013-09-21 09:05:00,55.3,51.5,29.80,NNE,21,0.0,0.0,87,0.00,,---,0.01,VWS V14.00,2013-09-21 14:05:00,
2013-09-21 09:10:00,55.6,51.2,29.80,WNW,302,2.0,3.0,85,0.00,,---,0.01,VWS V14.00,2013-09-21 14:10:00,
2013-09-21 09:15:00,56.0,51.2,29.80,WNW,293,0.0,5.0,84,0.00,,---,0.01,VWS V14.00,2013-09-21 14:15:00,
2013-09-21 09:20:00,56.6,51.5,29.80,NNW,334,1.0,1.0,83,0.00,,---,0.01,VWS V14.00,2013-09-21 14:20:00,
2013-09-21 09:25:00,56.7,50.3,29.80,WNW,292,5.0,5.0,79,0.00,,---,0.01,VWS V14.00,2013-09-21 14:25:00,
2013-09-21 09:30:00,56.7,50.6,29.80,NNW,342,0.0,4.0,80,0.00,,---,0.01,VWS V14.00,2013-09-21 14:30:00,
2013-09-21 09:35:00,57.2,51.1,29.80,NW,311,0.0,1.0,80,0.00,,---,0.01,VWS V14.00,2013-09-21 14:35:00,
2013-09-21 09:40:00,57.8,51.3,29.80,North,5,0.0,1.0,79,0.00,,---,0.01,VWS V14.00,2013-09-21 14:40:00,
2013-09-21 09:45:00,58.0,50.5,29.80,NNE,21,0.0,7.0,76,0.00,,---,0.01,VWS V14.00,2013-09-21 14:45:00,
2013-09-21 09:50:00,58.0,50.1,29.80,North,360,4.0,11.0,75,0.00,,---,0.01,VWS V14.00,2013-09-21 14:50:00,
2013-09-21 09:55:00,57.8,49.6,29.80,NNW,330,4.0,10.0,74,0.00,,---,0.01,VWS V14.00,2013-09-21 14:55:00,
2013-09-21 10:00:00,57.4,50.3,29.80,NW,313,4.0,4.0,77,0.00,,---,0.01,VWS V14.00,2013-09-21 15:00:00,
2013-09-21 10:05:00,57.0,49.5,29.80,NNW,338,0.0,10.0,76,0.00,,---,0.01,VWS V14.00,2013-09-21 15:05:00,
2013-09-21 10:10:00,56.9,49.4,29.80,NW,316,3.0,9.0,76,0.00,,---,0.01,VWS V14.00,2013-09-21 15:10:00,
2013-09-21 10:15:00,56.9,49.4,29.80,NNW,344,4.0,6.0,76,0.00,,---,0.01,VWS V14.00,2013-09-21 15:15:00,
2013-09-21 10:20:00,56.8,49.3,29.80,WNW,293,3.0,5.0,76,0.00,,---,0.01,VWS V14.00,2013-09-21 15:20:00,
2013-09-21 10:25:00,56.9,49.4,29.81,NW,316,1.0,3.0,76,0.00,,---,0.01,VWS V14.00,2013-09-21 15:25:00,
2013-09-21 10:30:00,57.0,49.5,29.81,NW,324,0.0,5.0,76,0.00,,---,0.01,VWS V14.00,2013-09-21 15:30:00,
2013-09-21 10:35:00,57.0,49.2,29.81,NW,323,5.0,13.0,75,0.00,,---,0.01,VWS V14.00,2013-09-21 15:35:00,
2013-09-21 10:40:00,56.8,49.0,29.81,West,278,2.0,5.0,75,0.00,,---,0.01,VWS V14.00,2013-09-21 15:40:00,
2013-09-21 10:45:00,56.4,48.6,29.81,NW,310,2.0,7.0,75,0.00,,---,0.01,VWS V14.00,2013-09-21 15:45:00,
2013-09-21 10:50:00,56.2,48.8,29.81,NW,315,1.0,12.0,76,0.00,,---,0.01,VWS V14.00,2013-09-21 15:50:00,
2013-09-21 10:55:00,56.1,49.0,29.81,NW,323,4.0,6.0,77,0.00,,---,0.01,VWS V14.00,2013-09-21 15:55:00,
2013-09-21 11:00:00,56.2,49.4,29.81,North,355,3.0,7.0,78,0.00,,---,0.01,VWS V14.00,2013-09-21 16:00:00,
2013-09-21 11:01:00,56.3,49.2,29.81,NNW,331,2.0,6.0,77,0.00,,---,0.01,VWS V14.00,2013-09-21 16:01:00,
2013-09-21 11:05:00,56.5,48.7,29.81,WNW,302,4.0,11.0,75,0.00,,---,0.01,VWS V14.00,2013-09-21 16:05:00,
2013-09-21 11:06:00,56.6,48.8,29.81,NW,323,9.0,10.0,75,0.00,,---,0.01,VWS V14.00,2013-09-21 16:06:00,
2013-09-21 11:10:00,56.7,48.9,29.81,North,351,0.0,10.0,75,0.00,,---,0.01,VWS V14.00,2013-09-21 16:10:00,
2013-09-21 11:11:00,56.7,49.2,29.81,NNW,340,3.0,4.0,76,0.00,,---,0.01,VWS V14.00,2013-09-21 16:11:00,
2013-09-21 11:15:00,56.7,48.9,29.81,North,349,9.0,11.0,75,0.00,,---,0.01,VWS V14.00,2013-09-21 16:15:00,
2013-09-21 11:16:00,56.6,48.4,29.81,NNW,344,1.0,12.0,74,0.00,,---,0.01,VWS V14.00,2013-09-21 16:16:00,
2013-09-21 11:20:00,56.5,48.7,29.81,NNW,341,0.0,12.0,75,0.00,,---,0.01,VWS V14.00,2013-09-21 16:20:00,
2013-09-21 11:21:00,56.5,48.7,29.81,NW,304,5.0,5.0,75,0.00,,---,0.01,VWS V14.00,2013-09-21 16:21:00,
2013-09-21 11:25:00,56.5,48.7,29.81,NW,315,2.0,10.0,75,0.00,,---,0.01,VWS V14.00,2013-09-21 16:25:00,
2013-09-21 11:26:00,56.5,48.7,29.81,NNW,334,4.0,9.0,75,0.00,,---,0.01,VWS V14.00,2013-09-21 16:26:00,
2013-09-21 11:30:00,56.5,48.7,29.81,WNW,294,0.0,9.0,75,0.00,,---,0.01,VWS V14.00,2013-09-21 16:30:00,
2013-09-21 11:31:00,56.6,48.8,29.81,NW,310,7.0,10.0,75,0.00,,---,0.01,VWS V14.00,2013-09-21 16:31:00,
2013-09-21 11:35:00,56.8,49.0,29.81,NW,325,3.0,10.0,75,0.00,,---,0.01,VWS V14.00,2013-09-21 16:35:00,
2013-09-21 11:36:00,56.9,48.7,29.81,NW,315,0.0,4.0,74,0.00,,---,0.01,VWS V14.00,2013-09-21 16:36:00,
2013-09-21 11:40:00,57.2,49.0,29.81,NW,314,0.0,11.0,74,0.00,,---,0.01,VWS V14.00,2013-09-21 16:40:00,
2013-09-21 11:41:00,57.5,49.7,29.81,West,266,7.0,11.0,75,0.00,,---,0.01,VWS V14.00,2013-09-21 16:41:00,
2013-09-21 11:45:00,58.0,49.8,29.81,North,360,7.0,13.0,74,0.00,,---,0.01,VWS V14.00,2013-09-21 16:45:00,
2013-09-21 11:46:00,58.1,48.8,29.81,West,272,6.0,13.0,71,0.00,,---,0.01,VWS V14.00,2013-09-21 16:46:00,
2013-09-21 11:50:00,58.0,49.0,29.81,North,360,11.0,16.0,72,0.00,,---,0.01,VWS V14.00,2013-09-21 16:50:00,
2013-09-21 11:53:00,57.8,49.2,29.81,NW,304,5.0,11.0,73,0.00,,---,0.01,VWS V14.00,2013-09-21 16:53:00,
2013-09-21 11:55:00,57.6,48.3,29.81,WNW,288,13.0,13.0,71,0.00,,---,0.01,VWS V14.00,2013-09-21 16:55:00,
2013-09-21 11:58:00,57.3,48.0,29.81,NNW,339,3.0,13.0,71,0.00,,---,0.01,VWS V14.00,2013-09-21 16:58:00,
2013-09-21 12:00:00,57.2,47.9,29.82,NNW,334,1.0,13.0,71,0.00,,---,0.01,VWS V14.00,2013-09-21 17:00:00,
2013-09-21 12:03:00,57.1,47.8,29.82,WNW,288,9.0,12.0,71,0.00,,---,0.01,VWS V14.00,2013-09-21 17:03:00,
2013-09-21 12:05:00,57.1,48.2,29.82,NNE,25,0.0,12.0,72,0.00,,---,0.01,VWS V14.00,2013-09-21 17:05:00,
2013-09-21 12:08:00,57.3,48.7,29.82,NNW,329,0.0,6.0,73,0.00,,---,0.01,VWS V14.00,2013-09-21 17:08:00,
2013-09-21 12:10:00,57.5,49.3,29.82,NW,310,3.0,7.0,74,0.00,,---,0.01,VWS V14.00,2013-09-21 17:10:00,
2013-09-21 12:13:00,57.9,48.9,29.82,WNW,296,10.0,10.0,72,0.00,,---,0.01,VWS V14.00,2013-09-21 17:13:00,
2013-09-21 12:15:00,57.9,48.9,29.82,North,355,3.0,13.0,72,0.00,,---,0.01,VWS V14.00,2013-09-21 17:15:00,
2013-09-21 12:18:00,58.1,49.5,29.82,NNW,346,0.0,7.0,73,0.00,,---,0.01,VWS V14.00,2013-09-21 17:18:00,
2013-09-21 12:20:00,58.3,49.7,29.82,NNW,335,5.0,8.0,73,0.00,,---,0.01,VWS V14.00,2013-09-21 17:20:00,
2013-09-21 12:23:00,58.3,48.2,29.82,NW,321,9.0,11.0,69,0.00,,---,0.01,VWS V14.00,2013-09-21 17:23:00,
2013-09-21 12:25:00,58.2,47.7,29.82,NW,308,0.0,11.0,68,0.00,,---,0.01,VWS V14.00,2013-09-21 17:25:00,
2013-09-21 12:28:00,58.1,48.8,29.82,NNW,342,0.0,5.0,71,0.00,,---,0.01,VWS V14.00,2013-09-21 17:28:00,
2013-09-21 12:30:00,58.1,48.8,29.82,NNW,342,0.0,5.0,71,0.00,,---,0.01,VWS V14.00,2013-09-21 17:30:00,
2013-09-21 12:33:00,58.0,48.7,29.82,NNW,338,4.0,7.0,71,0.00,,---,0.01,VWS V14.00,2013-09-21 17:33:00,
2013-09-21 12:35:00,57.9,48.6,29.82,WNW,284,3.0,9.0,71,0.00,,---,0.01,VWS V14.00,2013-09-21 17:35:00,
2013-09-21 12:38:00,57.7,48.4,29.82,NW,314,6.0,10.0,71,0.00,,---,0.01,VWS V14.00,2013-09-21 17:38:00,
2013-09-21 12:40:00,57.6,48.3,29.82,NW,308,5.0,12.0,71,0.00,,---,0.01,VWS V14.00,2013-09-21 17:40:00,
2013-09-21 12:43:00,57.3,48.0,29.82,NW,310,0.0,10.0,71,0.00,,---,0.01,VWS V14.00,2013-09-21 17:43:00,
2013-09-21 12:45:00,57.4,48.5,29.82,WSW,248,0.0,10.0,72,0.00,,---,0.01,VWS V14.00,2013-09-21 17:45:00,
2013-09-21 12:48:00,57.8,48.5,29.82,West,269,0.0,10.0,71,0.00,,---,0.01,VWS V14.00,2013-09-21 17:48:00,
2013-09-21 12:50:00,57.9,48.6,29.82,NNW,342,1.0,10.0,71,0.00,,---,0.01,VWS V14.00,2013-09-21 17:50:00,
2013-09-21 12:53:00,58.1,48.4,29.82,NW,306,1.0,9.0,70,0.00,,---,0.01,VWS V14.00,2013-09-21 17:53:00,
2013-09-21 12:55:00,58.1,48.4,29.82,NW,319,1.0,9.0,70,0.00,,---,0.01,VWS V14.00,2013-09-21 17:55:00,
2013-09-21 12:58:00,58.2,48.8,29.82,WNW,288,0.0,5.0,71,0.00,,---,0.01,VWS V14.00,2013-09-21 17:58:00,
2013-09-21 13:00:00,58.2,48.8,29.82,NW,317,4.0,7.0,71,0.00,,---,0.01,VWS V14.00,2013-09-21 18:00:00,
2013-09-21 13:03:00,58.1,48.8,29.82,WNW,284,5.0,7.0,71,0.00,,---,0.01,VWS V14.00,2013-09-21 18:03:00,
2013-09-21 13:05:00,58.1,48.4,29.82,WNW,302,6.0,12.0,70,0.00,,---,0.01,VWS V14.00,2013-09-21 18:05:00,
2013-09-21 13:08:00,58.1,47.6,29.82,North,349,1.0,10.0,68,0.00,,---,0.01,VWS V14.00,2013-09-21 18:08:00,
2013-09-21 13:10:00,58.1,48.0,29.82,North,355,4.0,10.0,69,0.00,,---,0.01,VWS V14.00,2013-09-21 18:10:00,
2013-09-21 13:13:00,58.1,47.6,29.82,NNW,341,1.0,9.0,68,0.00,,---,0.01,VWS V14.00,2013-09-21 18:13:00,
2013-09-21 13:15:00,58.1,47.6,29.82,North,355,2.0,9.0,68,0.00,,---,0.01,VWS V14.00,2013-09-21 18:15:00,
2013-09-21 13:18:00,58.0,47.5,29.82,NW,314,4.0,7.0,68,0.00,,---,0.01,VWS V14.00,2013-09-21 18:18:00,
2013-09-21 13:20:00,58.0,47.9,29.82,NW,314,0.0,7.0,69,0.00,,---,0.01,VWS V14.00,2013-09-21 18:20:00,
2013-09-21 13:23:00,58.2,48.5,29.82,North,350,0.0,7.0,70,0.00,,---,0.01,VWS V14.00,2013-09-21 18:23:00,
2013-09-21 13:25:00,58.2,48.1,29.82,WNW,290,2.0,7.0,69,0.00,,---,0.01,VWS V14.00,2013-09-21 18:25:00,
2013-09-21 13:28:00,58.3,48.2,29.81,WNW,290,3.0,5.0,69,0.00,,---,0.01,VWS V14.00,2013-09-21 18:28:00,
2013-09-21 13:30:00,58.3,48.6,29.82,NW,311,2.0,5.0,70,0.00,,---,0.01,VWS V14.00,2013-09-21 18:30:00,
2013-09-21 13:33:00,58.4,47.9,29.81,NW,305,3.0,8.0,68,0.00,,---,0.01,VWS V14.00,2013-09-21 18:33:00,
2013-09-21 13:35:00,58.4,47.9,29.81,West,278,2.0,8.0,68,0.00,,---,0.01,VWS V14.00,2013-09-21 18:35:00,
2013-09-21 13:38:00,58.6,48.5,29.81,NNW,346,0.0,4.0,69,0.00,,---,0.01,VWS V14.00,2013-09-21 18:38:00,
2013-09-21 13:40:00,58.7,48.6,29.81,NNW,336,0.0,4.0,69,0.00,,---,0.01,VWS V14.00,2013-09-21 18:40:00,
2013-09-21 13:43:00,58.8,47.9,29.81,NNW,327,6.0,8.0,67,0.00,,---,0.01,VWS V14.00,2013-09-21 18:43:00,
2013-09-21 13:45:00,58.8,47.9,29.81,NW,321,7.0,8.0,67,0.00,,---,0.01,VWS V14.00,2013-09-21 18:45:00,
2013-09-21 13:48:00,58.4,47.5,29.81,WNW,294,7.0,10.0,67,0.00,,---,0.01,VWS V14.00,2013-09-21 18:48:00,
2013-09-21 13:50:00,58.4,47.1,29.81,NW,305,5.0,13.0,66,0.00,,---,0.01,VWS V14.00,2013-09-21 18:50:00,
2013-09-21 13:53:00,58.3,47.8,29.81,NNW,348,2.0,10.0,68,0.00,,---,0.01,VWS V14.00,2013-09-21 18:53:00,
2013-09-21 13:55:00,58.3,47.8,29.81,NW,304,1.0,10.0,68,0.00,,---,0.01,VWS V14.00,2013-09-21 18:55:00,
2013-09-21 13:58:00,58.3,48.2,29.81,NE,52,1.0,11.0,69,0.00,,---,0.01,VWS V14.00,2013-09-21 18:58:00,
2013-09-21 14:00:00,58.4,47.9,29.81,NNW,327,8.0,12.0,68,0.00,,---,0.01,VWS V14.00,2013-09-21 19:00:00,
2013-09-21 14:03:00,58.4,47.9,29.81,NNW,334,3.0,11.0,68,0.00,,---,0.01,VWS V14.00,2013-09-21 19:03:00,
2013-09-21 14:05:00,58.4,47.5,29.81,NW,326,0.0,11.0,67,0.00,,---,0.01,VWS V14.00,2013-09-21 19:05:00,
2013-09-21 14:08:00,58.2,47.7,29.81,NNW,339,1.0,11.0,68,0.00,,---,0.01,VWS V14.00,2013-09-21 19:08:00,
2013-09-21 14:10:00,58.2,47.7,29.81,NW,308,1.0,11.0,68,0.00,,---,0.01,VWS V14.00,2013-09-21 19:10:00,
2013-09-21 14:13:00,58.2,47.7,29.81,WNW,283,1.0,5.0,68,0.00,,---,0.01,VWS V14.00,2013-09-21 19:13:00,
2013-09-21 14:15:00,58.2,47.7,29.81,NNW,340,5.0,8.0,68,0.00,,---,0.01,VWS V14.00,2013-09-21 19:15:00,
2013-09-21 14:18:00,58.1,47.6,29.81,NW,305,0.0,10.0,68,0.00,,---,0.01,VWS V14.00,2013-09-21 19:18:00,
2013-09-21 14:20:00,58.1,47.6,29.81,NW,311,5.0,10.0,68,0.00,,---,0.01,VWS V14.00,2013-09-21 19:20:00,
2013-09-21 14:23:00,58.5,48.4,29.82,NW,313,0.0,9.0,69,0.00,,---,0.01,VWS V14.00,2013-09-21 19:23:00,
2013-09-21 14:25:00,58.6,48.5,29.82,NW,309,2.0,9.0,69,0.00,,---,0.01,VWS V14.00,2013-09-21 19:25:00,
2013-09-21 14:28:00,59.0,48.1,29.82,NW,318,3.0,6.0,67,0.00,,---,0.01,VWS V14.00,2013-09-21 19:28:00,
2013-09-21 14:30:00,59.0,47.7,29.82,WNW,296,0.0,6.0,66,0.00,,---,0.01,VWS V14.00,2013-09-21 19:30:00,
2013-09-21 14:33:00,59.0,48.1,29.81,NNW,348,0.0,6.0,67,0.00,,---,0.01,VWS V14.00,2013-09-21 19:33:00,
2013-09-21 14:35:00,59.0,48.1,29.81,NNW,344,3.0,6.0,67,0.00,,---,0.01,VWS V14.00,2013-09-21 19:35:00,
2013-09-21 14:38:00,59.1,48.6,29.81,NW,307,3.0,6.0,68,0.00,,---,0.01,VWS V14.00,2013-09-21 19:38:00,
2013-09-21 14:40:00,59.1,48.6,29.81,WNW,291,1.0,6.0,68,0.00,,---,0.01,VWS V14.00,2013-09-21 19:40:00,
2013-09-21 14:43:00,59.3,48.4,29.81,NW,314,2.0,10.0,67,0.00,,---,0.01,VWS V14.00,2013-09-21 19:43:00,
2013-09-21 14:45:00,59.4,48.0,29.81,NW,319,0.0,10.0,66,0.00,,---,0.01,VWS V14.00,2013-09-21 19:45:00,
2013-09-21 14:48:00,60.3,49.3,29.81,NNW,334,5.0,10.0,67,0.00,,---,0.01,VWS V14.00,2013-09-21 19:48:00,
2013-09-21 14:50:00,60.5,49.1,29.81,SW,234,3.0,10.0,66,0.00,,---,0.01,VWS V14.00,2013-09-21 19:50:00,
2013-09-21 14:53:00,61.4,49.1,29.80,NNW,335,4.0,7.0,64,0.00,,---,0.01,VWS V14.00,2013-09-21 19:53:00,
2013-09-21 14:55:00,61.6,49.3,29.80,West,274,3.0,11.0,64,0.00,,---,0.01,VWS V14.00,2013-09-21 19:55:00,
2013-09-21 14:58:00,62.0,49.3,29.80,NW,313,3.0,11.0,63,0.00,,---,0.01,VWS V14.00,2013-09-21 19:58:00,
2013-09-21 15:00:00,62.0,49.3,29.80,WNW,302,0.0,11.0,63,0.00,,---,0.01,VWS V14.00,2013-09-21 20:00:00,
2013-09-21 15:03:00,62.1,48.5,29.80,NW,323,4.0,8.0,61,0.00,,---,0.01,VWS V14.00,2013-09-21 20:03:00,
2013-09-21 15:05:00,62.1,48.5,29.80,NNW,332,4.0,13.0,61,0.00,,---,0.01,VWS V14.00,2013-09-21 20:05:00,
2013-09-21 15:08:00,61.9,48.8,29.80,NW,321,7.0,12.0,62,0.00,,---,0.01,VWS V14.00,2013-09-21 20:08:00,
2013-09-21 15:10:00,61.9,49.2,29.80,North,355,6.0,12.0,63,0.00,,---,0.01,VWS V14.00,2013-09-21 20:10:00,
2013-09-21 15:13:00,61.2,49.8,29.80,NW,315,0.0,9.0,66,0.00,,---,0.01,VWS V14.00,2013-09-21 20:13:00,
2013-09-21 15:15:00,61.3,49.9,29.80,NNE,28,0.0,9.0,66,0.00,,---,0.01,VWS V14.00,2013-09-21 20:15:00,
2013-09-21 15:19:00,61.2,48.9,29.80,WNW,300,0.0,9.0,64,0.00,,---,0.01,VWS V14.00,2013-09-21 20:19:00,
2013-09-21 15:20:00,61.2,48.9,29.80,WNW,288,0.0,9.0,64,0.00,,---,0.01,VWS V14.00,2013-09-21 20:20:00,
2013-09-21 15:24:00,60.6,48.8,29.80,NW,319,0.0,6.0,65,0.00,,---,0.01,VWS V14.00,2013-09-21 20:24:00,
2013-09-21 15:25:00,60.6,48.8,29.80,West,259,2.0,6.0,65,0.00,,---,0.01,VWS V14.00,2013-09-21 20:25:00,
2013-09-21 15:29:00,60.9,49.1,29.80,West,271,0.0,9.0,65,0.00,,---,0.01,VWS V14.00,2013-09-21 20:29:00,
2013-09-21 15:30:00,60.9,49.5,29.80,West,271,0.0,9.0,66,0.00,,---,0.01,VWS V14.00,2013-09-21 20:30:00,
2013-09-21 15:34:00,61.8,49.5,29.80,SSW,200,2.0,9.0,64,0.00,,---,0.01,VWS V14.00,2013-09-21 20:34:00,
2013-09-21 15:35:00,61.8,49.5,29.80,West,275,1.0,9.0,64,0.00,,---,0.01,VWS V14.00,2013-09-21 20:35:00,
2013-09-21 15:39:00,62.1,48.9,29.80,NNW,334,5.0,11.0,62,0.00,,---,0.01,VWS V14.00,2013-09-21 20:39:00,
2013-09-21 15:40:00,62.1,48.9,29.80,NW,318,0.0,11.0,62,0.00,,---,0.01,VWS V14.00,2013-09-21 20:40:00,
2013-09-21 15:44:00,62.3,49.1,29.79,NW,317,7.0,9.0,62,0.00,,---,0.01,VWS V14.00,2013-09-21 20:44:00,
2013-09-21 15:45:00,62.3,49.1,29.79,WNW,284,0.0,9.0,62,0.00,,---,0.01,VWS V14.00,2013-09-21 20:45:00,
2013-09-21 15:49:00,62.0,48.8,29.79,North,5,4.0,12.0,62,0.00,,---,0.01,VWS V14.00,2013-09-21 20:49:00,
2013-09-21 15:50:00,62.0,48.8,29.79,NW,321,3.0,12.0,62,0.00,,---,0.01,VWS V14.00,2013-09-21 20:50:00,
2013-09-21 15:54:00,61.5,48.4,29.79,NNW,334,0.0,8.0,62,0.00,,---,0.01,VWS V14.00,2013-09-21 20:54:00,
2013-09-21 15:55:00,61.4,48.3,29.79,NNW,335,1.0,8.0,62,0.00,,---,0.01,VWS V14.00,2013-09-21 20:55:00,
2013-09-21 15:59:00,61.2,49.3,29.79,WNW,292,1.0,10.0,65,0.00,,---,0.01,VWS V14.00,2013-09-21 20:59:00,
2013-09-21 16:00:00,61.2,49.3,29.79,WNW,293,0.0,10.0,65,0.00,,---,0.01,VWS V14.00,2013-09-21 21:00:00,
2013-09-21 16:04:00,61.2,48.9,29.80,North,355,4.0,7.0,64,0.00,,---,0.01,VWS V14.00,2013-09-21 21:04:00,
2013-09-21 16:05:00,61.2,49.3,29.80,NNW,344,3.0,7.0,65,0.00,,---,0.01,VWS V14.00,2013-09-21 21:05:00,
2013-09-21 16:09:00,61.1,49.3,29.79,NW,322,9.0,9.0,65,0.00,,---,0.01,VWS V14.00,2013-09-21 21:09:00,
2013-09-21 16:10:00,61.1,48.8,29.79,WNW,303,2.0,9.0,64,0.00,,---,0.01,VWS V14.00,2013-09-21 21:10:00,
2013-09-21 16:14:00,60.9,48.7,29.79,NNW,331,0.0,7.0,64,0.00,,---,0.01,VWS V14.00,2013-09-21 21:14:00,
2013-09-21 16:15:00,60.9,48.7,29.79,NW,325,1.0,7.0,64,0.00,,---,0.01,VWS V14.00,2013-09-21 21:15:00,
2013-09-21 16:19:00,60.7,48.5,29.79,North,9,0.0,8.0,64,0.00,,---,0.01,VWS V14.00,2013-09-21 21:19:00,
2013-09-21 16:20:00,60.7,48.5,29.79,North,9,0.0,8.0,64,0.00,,---,0.01,VWS V14.00,2013-09-21 21:20:00,
2013-09-21 16:24:00,60.4,48.6,29.79,NW,317,4.0,9.0,65,0.00,,---,0.01,VWS V14.00,2013-09-21 21:24:00,
2013-09-21 16:25:00,60.4,48.6,29.79,NW,320,5.0,9.0,65,0.00,,---,0.01,VWS V14.00,2013-09-21 21:25:00,
2013-09-21 16:29:00,59.7,48.7,29.79,WNW,295,0.0,6.0,67,0.00,,---,0.01,VWS V14.00,2013-09-21 21:29:00,
2013-09-21 16:30:00,59.7,48.7,29.79,WNW,295,0.0,6.0,67,0.00,,---,0.01,VWS V14.00,2013-09-21 21:30:00,
2013-09-21 16:34:00,59.4,48.5,29.79,WNW,303,0.0,5.0,67,0.00,,---,0.01,VWS V14.00,2013-09-21 21:34:00,
2013-09-21 16:35:00,59.4,48.5,29.79,WNW,303,0.0,5.0,67,0.00,,---,0.01,VWS V14.00,2013-09-21 21:35:00,
2013-09-21 16:39:00,59.5,48.9,29.79,NNW,329,2.0,6.0,68,0.00,,---,0.01,VWS V14.00,2013-09-21 21:39:00,
2013-09-21 16:40:00,59.5,48.9,29.79,NNW,330,0.0,6.0,68,0.00,,---,0.01,VWS V14.00,2013-09-21 21:40:00,
2013-09-21 16:44:00,59.4,49.2,29.79,NW,306,2.0,6.0,69,0.00,,---,0.01,VWS V14.00,2013-09-21 21:44:00,
2013-09-21 16:45:00,59.4,49.2,29.79,NW,306,2.0,6.0,69,0.00,,---,0.01,VWS V14.00,2013-09-21 21:45:00,
2013-09-21 16:49:00,59.4,49.2,29.79,NW,315,0.0,6.0,69,0.00,,---,0.01,VWS V14.00,2013-09-21 21:49:00,
2013-09-21 16:50:00,59.4,49.2,29.79,NW,315,0.0,6.0,69,0.00,,---,0.01,VWS V14.00,2013-09-21 21:50:00,
2013-09-21 16:54:00,59.9,49.3,29.79,WNW,294,2.0,9.0,68,0.00,,---,0.01,VWS V14.00,2013-09-21 21:54:00,
2013-09-21 16:55:00,60.0,49.4,29.79,WNW,285,3.0,9.0,68,0.00,,---,0.01,VWS V14.00,2013-09-21 21:55:00,
2013-09-21 16:59:00,60.3,48.9,29.79,WNW,302,1.0,4.0,66,0.00,,---,0.01,VWS V14.00,2013-09-21 21:59:00,
2013-09-21 17:00:00,60.3,48.9,29.79,WNW,302,1.0,4.0,66,0.00,,---,0.01,VWS V14.00,2013-09-21 22:00:00,
2013-09-21 17:04:00,60.3,48.9,29.79,NNW,336,2.0,9.0,66,0.00,,---,0.01,VWS V14.00,2013-09-21 22:04:00,
2013-09-21 17:05:00,60.3,48.9,29.79,NNW,328,2.0,9.0,66,0.00,,---,0.01,VWS V14.00,2013-09-21 22:05:00,
2013-09-21 17:09:00,60.1,49.1,29.79,North,351,0.0,5.0,67,0.00,,---,0.01,VWS V14.00,2013-09-21 22:09:00,
2013-09-21 17:10:00,60.1,49.1,29.79,North,351,0.0,5.0,67,0.00,,---,0.01,VWS V14.00,2013-09-21 22:10:00,
2013-09-21 17:14:00,60.3,49.7,29.79,NNW,341,0.0,7.0,68,0.00,,---,0.01,VWS V14.00,2013-09-21 22:14:00,
2013-09-21 17:15:00,60.3,49.7,29.79,NNW,342,1.0,7.0,68,0.00,,---,0.01,VWS V14.00,2013-09-21 22:15:00,
2013-09-21 17:19:00,60.5,49.5,29.79,North,5,3.0,4.0,67,0.00,,---,0.01,VWS V14.00,2013-09-21 22:19:00,
2013-09-21 17:20:00,60.5,49.5,29.79,North,5,3.0,4.0,67,0.00,,---,0.01,VWS V14.00,2013-09-21 22:20:00,
2013-09-21 17:24:00,60.3,48.9,29.79,North,355,1.0,4.0,66,0.00,,---,0.01,VWS V14.00,2013-09-21 22:24:00,
2013-09-21 17:25:00,60.3,48.9,29.79,North,355,0.0,4.0,66,0.00,,---,0.01,VWS V14.00,2013-09-21 22:25:00,
2013-09-21 17:29:00,60.2,49.2,29.79,North,11,0.0,6.0,67,0.00,,---,0.01,VWS V14.00,2013-09-21 22:29:00,
2013-09-21 17:30:00,60.2,49.2,29.79,NNE,12,0.0,6.0,67,0.00,,---,0.01,VWS V14.00,2013-09-21 22:30:00,
2013-09-21 17:34:00,60.0,49.0,29.79,NW,321,0.0,5.0,67,0.00,,---,0.01,VWS V14.00,2013-09-21 22:34:00,
2013-09-21 17:35:00,60.0,49.0,29.79,NW,321,0.0,5.0,67,0.00,,---,0.01,VWS V14.00,2013-09-21 22:35:00,
2013-09-21 17:39:00,59.9,48.9,29.79,WNW,286,2.0,4.0,67,0.00,,---,0.01,VWS V14.00,2013-09-21 22:39:00,
2013-09-21 17:40:00,59.9,48.9,29.79,WNW,286,2.0,4.0,67,0.00,,---,0.01,VWS V14.00,2013-09-21 22:40:00,
2013-09-21 17:44:00,59.8,49.2,29.79,NW,309,0.0,0.0,68,0.00,,---,0.01,VWS V14.00,2013-09-21 22:44:00,
2013-09-21 17:45:00,59.8,49.2,29.79,NW,309,0.0,4.0,68,0.00,,---,0.01,VWS V14.00,2013-09-21 22:45:00,
2013-09-21 17:49:00,59.6,48.6,29.79,NW,305,3.0,4.0,67,0.00,,---,0.01,VWS V14.00,2013-09-21 22:49:00,
2013-09-21 17:50:00,59.6,48.6,29.80,NW,310,4.0,6.0,67,0.00,,---,0.01,VWS V14.00,2013-09-21 22:50:00,
2013-09-21 17:54:00,59.1,48.6,29.80,NNW,342,0.0,0.0,68,0.00,,---,0.01,VWS V14.00,2013-09-21 22:54:00,
2013-09-21 17:55:00,59.1,48.6,29.80,NNW,342,0.0,5.0,68,0.00,,---,0.01,VWS V14.00,2013-09-21 22:55:00,
2013-09-21 17:59:00,58.8,48.7,29.80,NNW,342,0.0,0.0,69,0.00,,---,0.01,VWS V14.00,2013-09-21 22:59:00,
2013-09-21 18:00:00,58.8,48.7,29.80,NNW,342,0.0,3.0,69,0.00,,---,0.01,VWS V14.00,2013-09-21 23:00:00,
2013-09-21 18:04:00,58.5,49.1,29.80,WNW,292,0.0,0.0,71,0.00,,---,0.01,VWS V14.00,2013-09-21 23:04:00,
2013-09-21 18:05:00,58.5,49.1,29.80,WNW,292,0.0,3.0,71,0.00,,---,0.01,VWS V14.00,2013-09-21 23:05:00,
2013-09-21 18:09:00,58.2,49.2,29.80,WNW,292,0.0,0.0,72,0.00,,---,0.01,VWS V14.00,2013-09-21 23:09:00,
2013-09-21 18:10:00,58.2,49.2,29.80,WNW,292,0.0,1.0,72,0.00,,---,0.01,VWS V14.00,2013-09-21 23:10:00,
2013-09-21 18:14:00,57.9,48.9,29.80,WNW,292,0.0,0.0,72,0.00,,---,0.01,VWS V14.00,2013-09-21 23:14:00,
2013-09-21 18:15:00,58.0,49.0,29.80,WNW,292,0.0,0.0,72,0.00,,---,0.01,VWS V14.00,2013-09-21 23:15:00,
2013-09-21 18:19:00,57.8,49.6,29.80,WNW,292,0.0,0.0,74,0.00,,---,0.01,VWS V14.00,2013-09-21 23:19:00,
2013-09-21 18:20:00,57.8,49.6,29.80,WNW,292,0.0,0.0,74,0.00,,---,0.01,VWS V14.00,2013-09-21 23:20:00,
2013-09-21 18:24:00,57.5,49.3,29.80,WNW,292,0.0,0.0,74,0.00,,---,0.01,VWS V14.00,2013-09-21 23:24:00,
2013-09-21 18:25:00,57.5,49.3,29.80,WNW,292,0.0,0.0,74,0.00,,---,0.01,VWS V14.00,2013-09-21 23:25:00,
2013-09-21 18:29:00,56.9,49.1,29.80,WNW,292,0.0,0.0,75,0.00,,---,0.01,VWS V14.00,2013-09-21 23:29:00,
2013-09-21 18:30:00,57.0,49.2,29.80,WNW,292,0.0,0.0,75,0.00,,---,0.01,VWS V14.00,2013-09-21 23:30:00,
2013-09-21 18:34:00,56.5,49.4,29.80,WNW,292,0.0,0.0,77,0.00,,---,0.01,VWS V14.00,2013-09-21 23:34:00,
2013-09-21 18:35:00,56.6,49.5,29.80,WNW,292,0.0,0.0,77,0.00,,---,0.01,VWS V14.00,2013-09-21 23:35:00,
2013-09-21 18:39:00,55.9,49.2,29.80,WNW,292,0.0,0.0,78,0.00,,---,0.01,VWS V14.00,2013-09-21 23:39:00,
2013-09-21 18:40:00,56.0,49.2,29.80,WNW,292,0.0,1.0,78,0.00,,---,0.01,VWS V14.00,2013-09-21 23:40:00,
2013-09-21 18:44:00,55.3,49.2,29.80,WNW,292,0.0,0.0,80,0.00,,---,0.01,VWS V14.00,2013-09-21 23:44:00,
2013-09-21 18:45:00,55.4,49.3,29.80,WNW,292,0.0,0.0,80,0.00,,---,0.01,VWS V14.00,2013-09-21 23:45:00,
2013-09-21 18:49:00,54.7,49.3,29.80,WNW,292,0.0,0.0,82,0.00,,---,0.01,VWS V14.00,2013-09-21 23:49:00,
2013-09-21 18:50:00,54.8,49.1,29.80,WNW,292,0.0,0.0,81,0.00,,---,0.01,VWS V14.00,2013-09-21 23:50:00,
2013-09-21 18:54:00,54.2,48.8,29.80,WNW,292,0.0,0.0,82,0.00,,---,0.01,VWS V14.00,2013-09-21 23:54:00,
2013-09-21 18:55:00,54.3,48.9,29.80,WNW,292,0.0,0.0,82,0.00,,---,0.01,VWS V14.00,2013-09-21 23:55:00,
2013-09-21 18:59:00,53.8,48.8,29.80,WNW,292,0.0,0.0,83,0.00,,---,0.01,VWS V14.00,2013-09-21 23:59:00,
2013-09-21 19:00:00,53.8,48.8,29.80,WNW,292,0.0,1.0,83,0.00,,---,0.01,VWS V14.00,2013-09-22 00:00:00,
2013-09-21 19:05:00,53.3,48.6,29.80,WNW,292,0.0,0.0,84,0.00,,---,0.01,VWS V14.00,2013-09-22 00:05:00,
2013-09-21 19:10:00,53.0,48.6,29.80,WNW,292,0.0,0.0,85,0.00,,---,0.01,VWS V14.00,2013-09-22 00:10:00,
2013-09-21 19:15:00,52.7,48.3,29.81,WNW,292,0.0,0.0,85,0.00,,---,0.01,VWS V14.00,2013-09-22 00:15:00,
2013-09-21 19:20:00,52.4,48.3,29.81,WNW,292,0.0,0.0,86,0.00,,---,0.01,VWS V14.00,2013-09-22 00:20:00,
2013-09-21 19:25:00,51.9,47.8,29.81,WNW,292,0.0,0.0,86,0.00,,---,0.01,VWS V14.00,2013-09-22 00:25:00,
2013-09-21 19:30:00,51.6,47.9,29.81,WNW,292,0.0,0.0,87,0.00,,---,0.01,VWS V14.00,2013-09-22 00:30:00,
2013-09-21 19:35:00,51.4,47.7,29.81,WNW,292,0.0,0.0,87,0.00,,---,0.01,VWS V14.00,2013-09-22 00:35:00,
2013-09-21 19:40:00,51.2,47.8,29.81,WNW,292,0.0,0.0,88,0.00,,---,0.01,VWS V14.00,2013-09-22 00:40:00,
2013-09-21 19:45:00,51.0,47.6,29.82,WNW,292,0.0,0.0,88,0.00,,---,0.01,VWS V14.00,2013-09-22 00:45:00,
2013-09-21 19:50:00,50.8,47.7,29.82,WNW,292,0.0,0.0,89,0.00,,---,0.01,VWS V14.00,2013-09-22 00:50:00,
2013-09-21 19:55:00,50.6,47.5,29.82,WNW,292,0.0,0.0,89,0.00,,---,0.01,VWS V14.00,2013-09-22 00:55:00,
2013-09-21 20:00:00,50.3,47.5,29.82,WNW,292,0.0,0.0,90,0.00,,---,0.01,VWS V14.00,2013-09-22 01:00:00,
2013-09-21 20:05:00,50.1,47.3,29.82,WNW,292,0.0,0.0,90,0.00,,---,0.01,VWS V14.00,2013-09-22 01:05:00,
2013-09-21 20:10:00,50.0,47.5,29.82,WNW,292,0.0,0.0,91,0.00,,---,0.01,VWS V14.00,2013-09-22 01:10:00,
2013-09-21 20:15:00,49.9,47.4,29.82,WNW,292,0.0,0.0,91,0.00,,---,0.01,VWS V14.00,2013-09-22 01:15:00,
2013-09-21 20:20:00,49.6,47.1,29.83,WNW,292,0.0,0.0,91,0.00,,---,0.01,VWS V14.00,2013-09-22 01:20:00,
2013-09-21 20:25:00,49.4,46.9,29.83,WNW,292,0.0,0.0,91,0.00,,---,0.01,VWS V14.00,2013-09-22 01:25:00,
2013-09-21 20:30:00,49.2,47.0,29.83,WNW,292,0.0,0.0,92,0.00,,---,0.01,VWS V14.00,2013-09-22 01:30:00,
2013-09-21 20:35:00,49.1,46.9,29.83,WNW,292,0.0,0.0,92,0.00,,---,0.01,VWS V14.00,2013-09-22 01:35:00,
2013-09-21 20:40:00,49.0,46.8,29.83,WNW,292,0.0,0.0,92,0.00,,---,0.01,VWS V14.00,2013-09-22 01:40:00,
2013-09-21 20:45:00,48.8,46.6,29.83,WNW,292,0.0,0.0,92,0.00,,---,0.01,VWS V14.00,2013-09-22 01:45:00,
2013-09-21 20:50:00,48.6,46.4,29.83,WNW,292,0.0,0.0,92,0.00,,---,0.01,VWS V14.00,2013-09-22 01:50:00,
2013-09-21 20:55:00,48.3,46.1,29.83,WNW,292,0.0,0.0,92,0.00,,---,0.01,VWS V14.00,2013-09-22 01:55:00,
2013-09-21 21:00:00,48.2,46.3,29.83,WNW,292,0.0,0.0,93,0.00,,---,0.01,VWS V14.00,2013-09-22 02:00:00,
2013-09-21 21:05:00,48.2,46.3,29.83,WNW,292,0.0,0.0,93,0.00,,---,0.01,VWS V14.00,2013-09-22 02:05:00,
2013-09-21 21:06:00,48.2,46.3,29.83,WNW,292,0.0,0.0,93,0.00,,---,0.01,VWS V14.00,2013-09-22 02:06:00,
2013-09-21 21:10:00,48.1,46.2,29.83,WNW,292,0.0,0.0,93,0.00,,---,0.01,VWS V14.00,2013-09-22 02:10:00,
2013-09-21 21:11:00,48.0,46.1,29.83,WNW,292,0.0,0.0,93,0.00,,---,0.01,VWS V14.00,2013-09-22 02:11:00,
2013-09-21 21:15:00,47.9,46.0,29.83,WNW,292,0.0,0.0,93,0.00,,---,0.01,VWS V14.00,2013-09-22 02:15:00,
2013-09-21 21:16:00,47.9,46.0,29.83,WNW,292,0.0,0.0,93,0.00,,---,0.01,VWS V14.00,2013-09-22 02:16:00,
2013-09-21 21:20:00,47.8,46.2,29.83,WNW,292,0.0,0.0,94,0.00,,---,0.01,VWS V14.00,2013-09-22 02:20:00,
2013-09-21 21:21:00,47.8,46.2,29.83,WNW,292,0.0,0.0,94,0.00,,---,0.01,VWS V14.00,2013-09-22 02:21:00,
2013-09-21 21:25:00,47.8,46.2,29.83,WNW,292,0.0,0.0,94,0.00,,---,0.01,VWS V14.00,2013-09-22 02:25:00,
2013-09-21 21:26:00,47.8,46.2,29.83,WNW,292,0.0,0.0,94,0.00,,---,0.01,VWS V14.00,2013-09-22 02:26:00,
2013-09-21 21:30:00,47.6,46.0,29.83,WNW,292,0.0,0.0,94,0.00,,---,0.01,VWS V14.00,2013-09-22 02:30:00,
2013-09-21 21:31:00,47.5,45.9,29.83,WNW,292,0.0,0.0,94,0.00,,---,0.01,VWS V14.00,2013-09-22 02:31:00,
2013-09-21 21:35:00,47.5,45.9,29.83,WNW,292,0.0,0.0,94,0.00,,---,0.01,VWS V14.00,2013-09-22 02:35:00,
2013-09-21 21:36:00,47.4,45.8,29.83,WNW,292,0.0,0.0,94,0.00,,---,0.01,VWS V14.00,2013-09-22 02:36:00,
2013-09-21 21:40:00,47.4,45.8,29.83,WNW,292,0.0,0.0,94,0.00,,---,0.01,VWS V14.00,2013-09-22 02:40:00,
2013-09-21 21:41:00,47.4,45.8,29.83,WNW,292,0.0,0.0,94,0.00,,---,0.01,VWS V14.00,2013-09-22 02:41:00,
2013-09-21 21:45:00,47.3,45.7,29.83,WNW,292,0.0,0.0,94,0.00,,---,0.01,VWS V14.00,2013-09-22 02:45:00,
2013-09-21 21:46:00,47.1,45.5,29.84,WNW,292,0.0,0.0,94,0.00,,---,0.01,VWS V14.00,2013-09-22 02:46:00,
2013-09-21 21:50:00,46.9,45.3,29.84,WNW,292,0.0,0.0,94,0.00,,---,0.01,VWS V14.00,2013-09-22 02:50:00,
2013-09-21 21:51:00,46.8,45.2,29.84,WNW,292,0.0,0.0,94,0.00,,---,0.01,VWS V14.00,2013-09-22 02:51:00,
2013-09-21 21:55:00,46.7,45.1,29.84,WNW,292,0.0,0.0,94,0.00,,---,0.01,VWS V14.00,2013-09-22 02:55:00,
2013-09-21 21:56:00,46.6,45.0,29.84,WNW,292,0.0,0.0,94,0.00,,---,0.01,VWS V14.00,2013-09-22 02:56:00,
2013-09-21 22:00:00,46.5,44.9,29.84,WNW,292,0.0,0.0,94,0.00,,---,0.01,VWS V14.00,2013-09-22 03:00:00,
2013-09-21 22:01:00,46.4,44.8,29.84,WNW,292,0.0,0.0,94,0.00,,---,0.01,VWS V14.00,2013-09-22 03:01:00,
2013-09-21 22:05:00,46.4,44.8,29.85,WNW,292,0.0,0.0,94,0.00,,---,0.01,VWS V14.00,2013-09-22 03:05:00,
2013-09-21 22:07:00,46.4,44.8,29.85,WNW,292,0.0,0.0,94,0.00,,---,0.01,VWS V14.00,2013-09-22 03:07:00,
2013-09-21 22:10:00,46.4,45.0,29.85,WNW,292,0.0,0.0,95,0.00,,---,0.01,VWS V14.00,2013-09-22 03:10:00,
2013-09-21 22:12:00,46.5,45.2,29.85,WNW,292,0.0,0.0,95,0.00,,---,0.01,VWS V14.00,2013-09-22 03:12:00,
2013-09-21 22:15:00,46.4,45.0,29.85,WNW,292,0.0,0.0,95,0.00,,---,0.01,VWS V14.00,2013-09-22 03:15:00,
2013-09-21 22:17:00,46.4,45.0,29.85,WNW,292,0.0,0.0,95,0.00,,---,0.01,VWS V14.00,2013-09-22 03:17:00,
2013-09-21 22:20:00,46.4,45.0,29.85,WNW,292,0.0,0.0,95,0.00,,---,0.01,VWS V14.00,2013-09-22 03:20:00,
2013-09-21 22:22:00,46.4,45.0,29.85,WNW,292,0.0,0.0,95,0.00,,---,0.01,VWS V14.00,2013-09-22 03:22:00,
2013-09-21 22:25:00,46.4,45.0,29.84,WNW,292,0.0,0.0,95,0.00,,---,0.01,VWS V14.00,2013-09-22 03:25:00,
2013-09-21 22:27:00,46.4,45.0,29.84,WNW,292,0.0,0.0,95,0.00,,---,0.01,VWS V14.00,2013-09-22 03:27:00,
2013-09-21 22:30:00,46.4,45.0,29.84,WNW,292,0.0,0.0,95,0.00,,---,0.01,VWS V14.00,2013-09-22 03:30:00,
2013-09-21 22:32:00,46.4,45.0,29.84,WNW,292,0.0,0.0,95,0.00,,---,0.01,VWS V14.00,2013-09-22 03:32:00,
2013-09-21 22:35:00,46.4,45.0,29.84,WNW,292,0.0,0.0,95,0.00,,---,0.01,VWS V14.00,2013-09-22 03:35:00,
2013-09-21 22:37:00,46.4,45.0,29.84,WNW,292,0.0,0.0,95,0.00,,---,0.01,VWS V14.00,2013-09-22 03:37:00,
2013-09-21 22:40:00,46.4,45.0,29.84,WNW,292,0.0,0.0,95,0.00,,---,0.01,VWS V14.00,2013-09-22 03:40:00,
2013-09-21 22:42:00,46.4,45.0,29.84,WNW,292,0.0,0.0,95,0.00,,---,0.01,VWS V14.00,2013-09-22 03:42:00,
2013-09-21 22:45:00,46.4,45.0,29.84,WNW,292,0.0,0.0,95,0.00,,---,0.01,VWS V14.00,2013-09-22 03:45:00,
2013-09-21 22:47:00,46.4,45.0,29.84,WNW,292,0.0,0.0,95,0.00,,---,0.01,VWS V14.00,2013-09-22 03:47:00,
2013-09-21 22:50:00,46.4,45.0,29.84,WNW,292,0.0,0.0,95,0.00,,---,0.01,VWS V14.00,2013-09-22 03:50:00,
2013-09-21 22:52:00,46.4,45.0,29.84,WNW,292,0.0,0.0,95,0.00,,---,0.01,VWS V14.00,2013-09-22 03:52:00,
2013-09-21 22:55:00,46.4,45.0,29.84,WNW,292,0.0,0.0,95,0.00,,---,0.01,VWS V14.00,2013-09-22 03:55:00,
2013-09-21 22:57:00,46.4,45.0,29.84,WNW,292,0.0,0.0,95,0.00,,---,0.01,VWS V14.00,2013-09-22 03:57:00,
2013-09-21 23:00:00,46.4,45.0,29.84,WNW,292,0.0,0.0,95,0.00,,---,0.01,VWS V14.00,2013-09-22 04:00:00,
2013-09-21 23:01:00,46.4,45.0,29.84,WNW,292,0.0,0.0,95,0.00,,---,0.01,VWS V14.00,2013-09-22 04:01:00,
2013-09-21 23:02:00,46.4,45.0,29.84,WNW,292,0.0,0.0,95,0.00,,---,0.01,VWS V14.00,2013-09-22 04:02:00,
2013-09-21 23:05:00,46.4,45.0,29.84,WNW,292,0.0,0.0,95,0.00,,---,0.01,VWS V14.00,2013-09-22 04:05:00,
2013-09-21 23:07:00,46.4,45.0,29.84,WNW,292,0.0,0.0,95,0.00,,---,0.01,VWS V14.00,2013-09-22 04:07:00,
2013-09-21 23:10:00,46.4,45.0,29.84,WNW,292,0.0,0.0,95,0.00,,---,0.01,VWS V14.00,2013-09-22 04:10:00,
2013-09-21 23:12:00,46.4,45.0,29.84,WNW,292,0.0,0.0,95,0.00,,---,0.01,VWS V14.00,2013-09-22 04:12:00,
2013-09-21 23:15:00,46.4,45.0,29.84,WNW,292,0.0,0.0,95,0.00,,---,0.01,VWS V14.00,2013-09-22 04:15:00,
2013-09-21 23:17:00,46.4,45.0,29.84,WNW,292,0.0,0.0,95,0.00,,---,0.01,VWS V14.00,2013-09-22 04:17:00,
2013-09-21 23:20:00,46.4,45.0,29.85,WNW,292,0.0,0.0,95,0.00,,---,0.01,VWS V14.00,2013-09-22 04:20:00,
2013-09-21 23:22:00,46.4,45.0,29.85,WNW,292,0.0,0.0,95,0.00,,---,0.01,VWS V14.00,2013-09-22 04:22:00,
2013-09-21 23:25:00,46.4,45.0,29.85,WNW,292,0.0,0.0,95,0.00,,---,0.01,VWS V14.00,2013-09-22 04:25:00,
2013-09-21 23:28:00,46.4,45.0,29.85,WNW,292,0.0,0.0,95,0.00,,---,0.01,VWS V14.00,2013-09-22 04:28:00,
2013-09-21 23:30:00,46.4,45.0,29.85,WNW,292,0.0,0.0,95,0.00,,---,0.01,VWS V14.00,2013-09-22 04:30:00,
2013-09-21 23:33:00,46.4,45.0,29.85,WNW,292,0.0,0.0,95,0.00,,---,0.01,VWS V14.00,2013-09-22 04:33:00,
2013-09-21 23:35:00,46.4,45.0,29.85,WNW,292,0.0,0.0,95,0.00,,---,0.01,VWS V14.00,2013-09-22 04:35:00,
2013-09-21 23:38:00,46.4,45.0,29.84,WNW,292,0.0,0.0,95,0.00,,---,0.01,VWS V14.00,2013-09-22 04:38:00,
2013-09-21 23:40:00,46.4,45.0,29.84,WNW,292,0.0,0.0,95,0.00,,---,0.01,VWS V14.00,2013-09-22 04:40:00,
2013-09-21 23:43:00,46.4,45.0,29.84,WNW,292,0.0,0.0,95,0.00,,---,0.01,VWS V14.00,2013-09-22 04:43:00,
2013-09-21 23:45:00,46.4,45.0,29.84,WNW,292,0.0,0.0,95,0.00,,---,0.01,VWS V14.00,2013-09-22 04:45:00,
2013-09-21 23:48:00,46.4,45.0,29.85,WNW,292,0.0,0.0,95,0.00,,---,0.01,VWS V14.00,2013-09-22 04:48:00,
2013-09-21 23:50:00,46.4,45.0,29.85,WNW,292,0.0,0.0,95,0.00,,---,0.01,VWS V14.00,2013-09-22 04:50:00,
2013-09-21 23:53:00,46.4,45.0,29.85,WNW,292,0.0,0.0,95,0.00,,---,0.01,VWS V14.00,2013-09-22 04:53:00,
2013-09-21 23:55:00,46.4,45.0,29.85,WNW,292,0.0,0.0,95,0.00,,---,0.01,VWS V14.00,2013-09-22 04:55:00,
2013-09-21 23:58:00,46.4,45.0,29.84,WNW,292,0.0,0.0,95,0.00,,---,0.01,VWS V14.00,2013-09-22 04:58:00,